Time;durP1;ratioP1;P1;durP2;ratioP2;P2;SDS_P1;SDS_P2;PMS_P1;PMS_P2;Temp;Humidity;BMP_temperature;BMP_pressure;BME280_temperature;BME280_humidity;BME280_pressure;Samples;Min_cycle;Max_cycle;Signal;HPM_P1;HPM_P2
2022/12/07 00:01:52;;;;;;;33.00;21.60;;;;;;;3.62;100.00;97151.22;107643;1269;58858;-72
2022/12/07 00:04:22;;;;;;;28.00;21.20;;;;;;;3.62;100.00;97150.83;107684;1270;70073;-72
2022/12/07 00:06:52;;;;;;;25.60;19.60;;;;;;;3.64;100.00;97152.81;107635;1269;68066;-72
2022/12/07 00:09:22;;;;;;;30.20;23.10;;;;;;;3.65;100.00;97156.38;107704;1268;69898;-72
2022/12/07 00:11:52;;;;;;;35.00;23.30;;;;;;;3.65;100.00;97156.54;107464;1268;58957;-71
2022/12/07 00:14:21;;;;;;;34.70;25.10;;;;;;;3.66;100.00;97155.14;107622;1268;58961;-71
2022/12/07 00:16:52;;;;;;;41.80;30.90;;;;;;;3.66;100.00;97156.70;107652;1263;71168;-71
2022/12/07 00:19:23;;;;;;;38.10;25.90;;;;;;;3.65;100.00;97159.98;107683;1269;69553;-71
2022/12/07 00:21:52;;;;;;;38.10;27.30;;;;;;;3.64;100.00;97157.45;107623;1265;69337;-71
2022/12/07 00:24:22;;;;;;;52.70;35.00;;;;;;;3.63;100.00;97154.91;107636;1265;58901;-72
2022/12/07 00:26:51;;;;;;;47.00;32.00;;;;;;;3.63;100.00;97153.92;107621;1269;58857;-71
2022/12/07 00:29:22;;;;;;;48.30;33.70;;;;;;;3.61;100.00;97155.54;107644;1269;70207;-71
2022/12/07 00:31:52;;;;;;;38.20;26.60;;;;;;;3.61;100.00;97156.74;107637;1269;68578;-71
2022/12/07 00:34:23;;;;;;;35.20;26.00;;;;;;;3.61;100.00;97155.05;107633;1269;69271;-71
2022/12/07 00:36:53;;;;;;;30.70;22.20;;;;;;;3.60;100.00;97155.23;107667;1269;58988;-71
2022/12/07 00:39:22;;;;;;;31.40;21.90;;;;;;;3.58;100.00;97151.02;107645;1266;58897;-71
2022/12/07 00:41:51;;;;;;;29.10;21.40;;;;;;;3.57;100.00;97152.48;107649;1269;71538;-71
2022/12/07 00:44:20;;;;;;;40.50;27.50;;;;;;;3.54;100.00;97155.66;107680;1267;68431;-71
2022/12/07 00:46:49;;;;;;;37.80;27.90;;;;;;;3.51;100.00;97154.79;107675;1269;69110;-72
2022/12/07 00:49:19;;;;;;;37.80;26.90;;;;;;;3.50;100.00;97156.57;107681;1270;58901;-71
2022/12/07 00:51:50;;;;;;;40.50;26.20;;;;;;;3.49;100.00;97156.10;107685;1270;58960;-72
2022/12/07 00:54:20;;;;;;;30.00;23.20;;;;;;;3.48;100.00;97155.14;107652;1269;70583;-72
2022/12/07 00:56:49;;;;;;;27.20;17.10;;;;;;;3.48;100.00;97149.10;107641;1266;68507;-71
2022/12/07 00:59:19;;;;;;;33.70;23.50;;;;;;;3.48;100.00;97145.64;107633;1265;68328;-72
2022/12/07 01:01:49;;;;;;;34.00;25.00;;;;;;;3.49;100.00;97148.36;107634;1269;58823;-71
2022/12/07 01:04:19;;;;;;;33.00;23.40;;;;;;;3.49;100.00;97146.14;107657;1269;58976;-71
2022/12/07 01:06:48;;;;;;;30.00;21.10;;;;;;;3.49;100.00;97150.42;107679;1263;71212;-70
2022/12/07 01:09:19;;;;;;;35.40;23.70;;;;;;;3.50;100.00;97149.50;107674;1266;69220;-71
2022/12/07 01:11:49;;;;;;;31.40;20.30;;;;;;;3.50;100.00;97148.80;107659;1270;68435;-71
2022/12/07 01:14:18;;;;;;;40.10;27.70;;;;;;;3.51;100.00;97146.00;107730;1269;58890;-72
2022/12/07 01:16:48;;;;;;;40.60;27.50;;;;;;;3.53;100.00;97146.08;107678;1269;58981;-71
2022/12/07 01:19:18;;;;;;;40.40;28.20;;;;;;;3.53;100.00;97150.08;107736;1270;71138;-72
2022/12/07 01:21:48;;;;;;;36.60;25.50;;;;;;;3.48;100.00;97152.88;107702;1269;69848;-71
2022/12/07 01:24:17;;;;;;;32.30;23.40;;;;;;;3.45;100.00;97153.89;107651;1269;69251;-71
2022/12/07 01:26:49;;;;;;;32.60;23.70;;;;;;;3.45;100.00;97154.94;107648;1263;58921;-71
2022/12/07 01:29:19;;;;;;;35.00;24.50;;;;;;;3.47;100.00;97155.20;107671;1270;59031;-71
2022/12/07 01:31:50;;;;;;;36.30;23.40;;;;;;;3.49;100.00;97151.46;107662;1269;70139;-71
2022/12/07 01:34:22;;;;;;;31.50;22.90;;;;;;;3.51;100.00;97152.55;107664;1269;69212;-72
2022/12/07 01:36:51;;;;;;;26.80;19.70;;;;;;;3.53;100.00;97151.41;107651;1268;68231;-71
2022/12/07 01:39:21;;;;;;;26.00;18.20;;;;;;;3.56;100.00;97152.69;107788;1270;58925;-71
2022/12/07 01:41:51;;;;;;;28.30;19.60;;;;;;;3.57;100.00;97150.73;107984;1269;58912;-71
2022/12/07 01:44:27;;;;;;;29.80;20.50;;;;;;;3.58;100.00;97150.30;107694;1270;70583;-72
2022/12/07 01:47:01;;;;;;;29.10;21.60;;;;;;;3.61;100.00;97150.05;107725;1268;69247;-71
2022/12/07 01:49:36;;;;;;;36.70;23.40;;;;;;;3.62;100.00;97150.30;107706;1269;69299;-71
2022/12/07 01:52:17;;;;;;;31.10;22.30;;;;;;;3.64;100.00;97143.34;107655;1269;58966;-71
2022/12/07 01:54:51;;;;;;;32.00;23.80;;;;;;;3.66;100.00;97143.42;107670;1269;58906;-72
2022/12/07 01:57:21;;;;;;;30.80;22.90;;;;;;;3.67;100.00;97142.48;107649;1269;69827;-73
2022/12/07 01:59:53;;;;;;;37.50;25.40;;;;;;;3.68;100.00;97145.39;107465;1270;69526;-71
2022/12/07 02:02:33;;;;;;;44.20;30.20;;;;;;;3.64;100.00;97144.90;107677;1269;69793;-72
2022/12/07 02:05:05;;;;;;;45.50;30.20;;;;;;;3.63;100.00;97146.33;107647;1270;59064;-71
2022/12/07 02:07:37;;;;;;;54.50;35.80;;;;;;;3.62;100.00;97149.11;107645;1270;58963;-70
2022/12/07 02:10:21;;;;;;;62.50;39.70;;;;;;;3.62;100.00;97149.66;107613;1274;69801;-74
2022/12/07 02:13:13;;;;;;;53.60;36.20;;;;;;;3.59;100.00;97148.23;107639;1269;68370;-73
2022/12/07 02:16:21;;;;;;;48.30;32.00;;;;;;;3.54;100.00;97143.27;107618;1269;68474;-69
2022/12/07 02:19:04;;;;;;;51.70;33.80;;;;;;;3.47;100.00;97135.55;107589;1270;58962;-69
2022/12/07 02:22:11;;;;;;;43.40;30.10;;;;;;;3.42;100.00;97133.04;107718;1270;58902;-70
2022/12/07 02:25:00;;;;;;;35.30;24.20;;;;;;;3.38;100.00;97128.71;107564;1269;70086;-69
2022/12/07 02:27:52;;;;;;;38.20;25.60;;;;;;;3.34;100.00;97120.46;107715;1270;69107;-69
2022/12/07 02:30:27;;;;;;;34.40;23.30;;;;;;;3.30;100.00;97125.34;107707;1269;69770;-69
2022/12/07 02:33:24;;;;;;;39.80;26.40;;;;;;;3.27;100.00;97129.42;107642;1266;58925;-69
2022/12/07 02:36:08;;;;;;;37.10;24.50;;;;;;;3.24;100.00;97128.20;107611;1269;58921;-70
2022/12/07 02:38:58;;;;;;;29.50;20.00;;;;;;;3.20;100.00;97127.70;107607;1269;71393;-69
2022/12/07 02:41:35;;;;;;;27.40;19.00;;;;;;;3.19;100.00;97135.02;107651;1269;68579;-67
2022/12/07 02:44:10;;;;;;;18.90;14.20;;;;;;;3.14;100.00;97134.89;107665;1269;68427;-70
2022/12/07 02:47:09;;;;;;;14.80;10.10;;;;;;;3.11;100.00;97129.89;107691;1269;58966;-70
2022/12/07 02:49:41;;;;;;;13.20;9.60;;;;;;;3.04;100.00;97124.83;107735;1266;58992;-71
2022/12/07 02:52:13;;;;;;;11.90;8.30;;;;;;;2.96;100.00;97122.63;107639;1268;69773;-69
2022/12/07 02:54:44;;;;;;;12.30;9.20;;;;;;;2.94;100.00;97123.11;107642;1264;68425;-70
2022/12/07 02:57:20;;;;;;;13.00;8.00;;;;;;;2.91;100.00;97126.00;107658;1270;68524;-70
2022/12/07 02:59:59;;;;;;;12.10;8.60;;;;;;;2.89;100.00;97127.97;107654;1268;58890;-69
2022/12/07 03:02:47;;;;;;;15.00;9.10;;;;;;;2.88;100.00;97131.98;107784;1269;58931;-71
2022/12/07 03:05:45;;;;;;;14.00;9.80;;;;;;;2.86;100.00;97132.42;107673;1268;70975;-70
2022/12/07 03:09:06;;;;;;;13.90;9.00;;;;;;;2.87;100.00;97137.20;107651;1269;69841;-70
2022/12/07 03:11:55;;;;;;;12.60;9.00;;;;;;;2.87;100.00;97145.24;107333;1272;69315;-70
2022/12/07 03:14:33;;;;;;;15.50;9.30;;;;;;;2.89;100.00;97147.06;107643;1269;58922;-69
2022/12/07 03:17:13;;;;;;;12.90;8.80;;;;;;;2.89;100.00;97152.23;107653;1269;58906;-70
2022/12/07 03:19:46;;;;;;;13.60;9.70;;;;;;;2.91;100.00;97153.88;107646;1269;70925;-70
2022/12/07 03:22:16;;;;;;;10.50;8.10;;;;;;;2.90;100.00;97150.46;107676;1265;69007;-71
2022/12/07 03:24:52;;;;;;;11.10;7.60;;;;;;;2.92;100.00;97149.02;107640;1270;69956;-70
2022/12/07 03:27:30;;;;;;;11.70;9.00;;;;;;;2.94;100.00;97145.79;107624;1267;58903;-70
2022/12/07 03:30:18;;;;;;;12.60;8.60;;;;;;;2.94;100.00;97138.89;107641;1268;58955;-69
2022/12/07 03:33:00;;;;;;;11.80;8.20;;;;;;;2.91;100.00;97137.34;107698;1269;70568;-70
2022/12/07 03:35:48;;;;;;;11.50;7.70;;;;;;;2.90;100.00;97133.61;107632;1269;68511;-70
2022/12/07 03:38:21;;;;;;;10.40;7.00;;;;;;;2.89;100.00;97138.96;107660;1270;69849;-71
2022/12/07 03:41:12;;;;;;;11.50;7.60;;;;;;;2.90;100.00;97138.92;107723;1270;58918;-70
2022/12/07 03:43:43;;;;;;;9.10;7.00;;;;;;;2.90;100.00;97140.46;107666;1269;58974;-70
2022/12/07 03:46:25;;;;;;;10.60;7.20;;;;;;;2.91;100.00;97142.50;107644;1269;69944;-70
2022/12/07 03:49:36;;;;;;;10.70;7.40;;;;;;;2.93;100.00;97140.35;107639;1270;68548;-70
2022/12/07 03:52:37;;;;;;;9.90;7.50;;;;;;;2.94;100.00;97143.05;107621;1269;69177;-70
2022/12/07 03:55:06;;;;;;;;;;;;;;;2.93;100.00;97142.05;107670;1270;58951;-71
2022/12/07 03:57:38;;;;;;;9.40;6.30;;;;;;;2.93;100.00;97137.94;107668;1270;58907;-70
2022/12/07 04:00:09;;;;;;;8.40;6.30;;;;;;;2.93;100.00;97134.15;107658;1270;70623;-70
2022/12/07 04:02:43;;;;;;;11.60;7.90;;;;;;;2.94;100.00;97135.65;107647;1268;69279;-69
2022/12/07 04:05:13;;;;;;;8.70;6.20;;;;;;;2.92;100.00;97137.30;107649;1268;69330;-69
2022/12/07 04:07:42;;;;;;;7.90;5.50;;;;;;;2.90;100.00;97136.68;107644;1270;58903;-70
2022/12/07 04:10:12;;;;;;;7.20;5.30;;;;;;;2.89;100.00;97136.39;107706;1269;58907;-70
2022/12/07 04:12:42;;;;;;;9.80;6.40;;;;;;;2.87;100.00;97134.95;107713;1270;70571;-70
2022/12/07 04:15:12;;;;;;;8.50;5.90;;;;;;;2.88;100.00;97133.55;107612;1266;69050;-69
2022/12/07 04:17:40;;;;;;;8.30;6.20;;;;;;;2.88;100.00;97134.90;107691;1268;69913;-70
2022/12/07 04:20:11;;;;;;;;;;;;;;;2.89;100.00;97139.34;107764;1267;58963;-70
2022/12/07 04:22:41;;;;;;;8.20;5.90;;;;;;;2.87;100.00;97139.42;107673;1270;58889;-70
2022/12/07 04:25:10;;;;;;;11.10;7.10;;;;;;;2.87;100.00;97137.72;107719;1269;70605;-70
2022/12/07 04:27:40;;;;;;;7.90;5.80;;;;;;;2.85;100.00;97135.38;107671;1269;68987;-70
2022/12/07 04:30:10;;;;;;;;;;;;;;;2.85;100.00;97140.05;107685;1271;69248;-71
2022/12/07 04:32:40;;;;;;;9.60;7.00;;;;;;;2.84;100.00;97137.84;107723;1270;58958;-70
2022/12/07 04:35:10;;;;;;;8.60;7.20;;;;;;;2.83;100.00;97139.95;107625;1268;58916;-71
2022/12/07 04:37:41;;;;;;;9.20;6.30;;;;;;;2.81;100.00;97142.80;107770;1267;69696;-71
2022/12/07 04:40:14;;;;;;;9.70;5.90;;;;;;;2.81;100.00;97143.27;107965;1270;69306;-70
2022/12/07 04:42:43;;;;;;;10.90;7.80;;;;;;;2.83;100.00;97143.42;107645;1269;69261;-70
2022/12/07 04:45:12;;;;;;;8.90;6.70;;;;;;;2.82;100.00;97141.39;107769;1269;59359;-71
2022/12/07 04:47:42;;;;;;;10.60;7.80;;;;;;;2.81;100.00;97137.96;107669;1268;58928;-69
2022/12/07 04:50:11;;;;;;;10.40;7.10;;;;;;;2.80;100.00;97132.14;107683;1269;70581;-70
2022/12/07 04:52:40;;;;;;;12.10;7.90;;;;;;;2.80;100.00;97131.33;107533;1267;68679;-70
2022/12/07 04:55:09;;;;;;;13.30;8.30;;;;;;;2.79;100.00;97129.48;107666;1269;70215;-70
2022/12/07 04:57:39;;;;;;;11.00;8.00;;;;;;;2.76;100.00;97134.21;107642;1272;58978;-71
2022/12/07 05:00:08;;;;;;;9.40;7.40;;;;;;;2.74;100.00;97139.16;107693;1270;58973;-71
2022/12/07 05:02:37;;;;;;;;;;;;;;;2.72;100.00;97137.86;107644;1265;70737;-70
2022/12/07 05:05:08;;;;;;;9.30;6.40;;;;;;;2.70;100.00;97141.77;107685;1270;69829;-71
2022/12/07 05:07:37;;;;;;;8.30;6.30;;;;;;;2.67;100.00;97138.80;107617;1270;69750;-71
2022/12/07 05:10:07;;;;;;;8.80;6.10;;;;;;;2.65;100.00;97140.12;107684;1269;58893;-70
2022/12/07 05:12:36;;;;;;;9.20;6.50;;;;;;;2.62;100.00;97140.23;107720;1270;58930;-70
2022/12/07 05:15:06;;;;;;;9.60;7.40;;;;;;;2.60;100.00;97138.08;107636;1269;70558;-70
2022/12/07 05:17:35;;;;;;;8.80;6.80;;;;;;;2.58;100.00;97139.21;107651;1265;68868;-70
2022/12/07 05:20:05;;;;;;;8.50;6.90;;;;;;;2.54;100.00;97142.29;107686;1270;69298;-70
2022/12/07 05:22:34;;;;;;;10.00;7.20;;;;;;;2.51;100.00;97147.44;107697;1270;59698;-70
2022/12/07 05:25:04;;;;;;;11.40;9.40;;;;;;;2.49;100.00;97146.47;107641;1268;59760;-70
2022/12/07 05:27:34;;;;;;;10.30;7.60;;;;;;;2.46;100.00;97148.15;107641;1270;71217;-70
2022/12/07 05:30:04;;;;;;;9.50;6.60;;;;;;;2.44;100.00;97148.59;107636;1270;69191;-69
2022/12/07 05:32:33;;;;;;;10.10;7.70;;;;;;;2.44;100.00;97156.70;107695;1268;69331;-71
2022/12/07 05:35:03;;;;;;;8.70;6.20;;;;;;;2.43;100.00;97158.42;107746;1269;59717;-71
2022/12/07 05:37:32;;;;;;;7.70;5.60;;;;;;;2.44;100.00;97159.61;107673;1269;59773;-71
2022/12/07 05:40:02;;;;;;;7.20;5.20;;;;;;;2.44;100.00;97162.16;107649;1269;70611;-71
2022/12/07 05:42:31;;;;;;;;;;;;;;;2.45;100.00;97163.36;107657;1269;69175;-72
2022/12/07 05:45:00;;;;;;;7.80;5.30;;;;;;;2.44;100.00;97164.24;107754;1269;69734;-71
2022/12/07 05:47:29;;;;;;;8.20;5.80;;;;;;;2.45;100.00;97168.16;107732;1270;59847;-70
2022/12/07 05:49:59;;;;;;;10.50;7.50;;;;;;;2.47;100.00;97170.86;107715;1269;59712;-72
2022/12/07 05:52:29;;;;;;;8.80;6.70;;;;;;;2.46;100.00;97172.60;107690;1269;72128;-71
2022/12/07 05:54:58;;;;;;;8.70;5.90;;;;;;;2.44;100.00;97170.08;107726;1266;68764;-71
2022/12/07 05:57:27;;;;;;;10.20;6.40;;;;;;;2.45;100.00;97170.58;107659;1269;69279;-70
2022/12/07 05:59:57;;;;;;;8.40;5.90;;;;;;;2.46;100.00;97171.40;107712;1262;59725;-70
2022/12/07 06:02:26;;;;;;;8.20;5.90;;;;;;;2.47;100.00;97176.30;107670;1270;59690;-70
2022/12/07 06:04:56;;;;;;;9.50;6.60;;;;;;;2.50;100.00;97177.05;107608;1276;71213;-70
2022/12/07 06:07:24;;;;;;;10.70;7.40;;;;;;;2.52;100.00;97181.27;107684;1270;69172;-71
2022/12/07 06:09:54;;;;;;;13.50;9.30;;;;;;;2.53;100.00;97177.77;107736;1269;69083;-70
2022/12/07 06:12:35;;;;;;;17.50;12.80;;;;;;;2.52;100.00;97177.12;107752;1266;59744;-70
2022/12/07 06:15:05;;;;;;;18.90;13.20;;;;;;;2.52;100.00;97178.35;107647;1270;59774;-70
2022/12/07 06:17:34;;;;;;;19.50;14.10;;;;;;;2.52;100.00;97177.33;107675;1271;71394;-69
2022/12/07 06:20:04;;;;;;;15.80;11.20;;;;;;;2.48;100.00;97180.39;107656;1266;68677;-70
2022/12/07 06:22:33;;;;;;;18.30;11.80;;;;;;;2.45;100.00;97182.96;107644;1270;68328;-70
2022/12/07 06:25:03;;;;;;;13.40;9.70;;;;;;;2.40;100.00;97183.86;107611;1266;59839;-69
2022/12/07 06:27:36;;;;;;;13.00;9.90;;;;;;;2.36;100.00;97184.72;107638;1269;59705;-71
2022/12/07 06:30:08;;;;;;;15.30;10.10;;;;;;;2.36;100.00;97189.38;107675;1270;70976;-69
2022/12/07 06:32:37;;;;;;;16.40;10.10;;;;;;;2.35;100.00;97189.22;107610;1269;69145;-70
2022/12/07 06:35:08;;;;;;;14.30;9.80;;;;;;;2.33;100.00;97193.61;107635;1269;69393;-70
2022/12/07 06:37:37;;;;;;;12.50;9.50;;;;;;;2.33;99.92;97193.31;107642;1269;59745;-70
2022/12/07 06:40:07;;;;;;;13.20;9.50;;;;;;;2.30;99.50;97196.84;107657;1270;59664;-70
2022/12/07 06:42:36;;;;;;;15.70;10.40;;;;;;;2.31;99.98;97196.11;107656;1271;71999;-70
2022/12/07 06:45:05;;;;;;;13.90;8.60;;;;;;;2.31;99.95;97195.77;107654;1266;68391;-71
2022/12/07 06:47:33;;;;;;;10.80;7.90;;;;;;;2.29;99.61;97199.79;107645;1269;69921;-70
2022/12/07 06:50:13;;;;;;;11.80;7.50;;;;;;;2.31;99.62;97200.58;107647;1268;59719;-70
2022/12/07 06:52:42;;;;;;;11.80;8.50;;;;;;;2.32;99.57;97206.73;107679;1269;59688;-70
2022/12/07 06:55:11;;;;;;;14.30;9.70;;;;;;;2.32;99.02;97205.56;107619;1269;71694;-70
2022/12/07 06:57:40;;;;;;;13.20;8.20;;;;;;;2.32;99.28;97206.23;107665;1270;69214;-70
2022/12/07 07:00:10;;;;;;;12.70;8.50;;;;;;;2.34;99.37;97203.20;107636;1265;68299;-70
2022/12/07 07:02:46;;;;;;;11.80;9.10;;;;;;;2.36;99.17;97201.93;107665;1266;59666;-70
2022/12/07 07:05:16;;;;;;;12.40;9.00;;;;;;;2.35;98.52;97205.23;107659;1270;59808;-70
2022/12/07 07:07:45;;;;;;;13.00;9.40;;;;;;;2.36;98.36;97207.62;107653;1271;71536;-70
2022/12/07 07:10:34;;;;;;;12.60;9.20;;;;;;;2.34;97.63;97206.98;107449;1268;69940;-70
2022/12/07 07:13:05;;;;;;;14.00;9.70;;;;;;;2.31;97.57;97205.92;107697;1270;68291;-71
2022/12/07 07:15:35;;;;;;;13.70;9.70;;;;;;;2.30;97.73;97202.33;107633;1271;59662;-69
2022/12/07 07:18:04;;;;;;;15.70;10.10;;;;;;;2.31;97.87;97202.48;107706;1270;59775;-70
2022/12/07 07:20:35;;;;;;;11.40;8.80;;;;;;;2.34;98.17;97204.58;107730;1268;71956;-70
2022/12/07 07:23:05;;;;;;;16.10;10.80;;;;;;;2.38;98.47;97208.73;107659;1268;68519;-70
2022/12/07 07:25:35;;;;;;;15.30;10.90;;;;;;;2.43;98.02;97206.27;107722;1269;68466;-69
2022/12/07 07:28:05;;;;;;;14.90;10.70;;;;;;;2.42;97.51;97205.23;107702;1270;59709;-69
2022/12/07 07:30:33;;;;;;;15.40;10.70;;;;;;;2.42;97.56;97206.83;107697;1269;59711;-70
2022/12/07 07:33:04;;;;;;;17.50;11.80;;;;;;;2.44;97.81;97206.55;107651;1268;71756;-70
2022/12/07 07:35:34;;;;;;;14.80;10.60;;;;;;;2.47;97.81;97203.17;107779;1270;69255;-70
2022/12/07 07:38:03;;;;;;;;;;;;;;;2.49;98.23;97210.29;108026;1267;69278;-70
2022/12/07 07:40:33;;;;;;;15.30;10.40;;;;;;;2.56;99.55;97211.73;107701;1267;59746;-70
2022/12/07 07:43:02;;;;;;;14.40;10.20;;;;;;;2.60;98.39;97211.23;107686;1267;59694;-70
2022/12/07 07:45:32;;;;;;;16.50;12.00;;;;;;;2.61;97.48;97213.90;107762;1267;70245;-70
2022/12/07 07:48:00;;;;;;;14.70;11.00;;;;;;;2.61;96.62;97213.41;107720;1267;69813;-69
2022/12/07 07:50:29;;;;;;;14.80;10.60;;;;;;;2.63;95.61;97216.94;107680;1267;69912;-70
2022/12/07 07:52:58;;;;;;;15.20;10.80;;;;;;;2.63;94.92;97214.48;107773;1263;59708;-69
2022/12/07 07:55:27;;;;;;;14.30;10.00;;;;;;;2.66;94.88;97215.73;107646;1267;59701;-69
2022/12/07 07:57:56;;;;;;;15.50;11.30;;;;;;;2.69;94.26;97212.68;107650;1267;69754;-70
2022/12/07 08:00:26;;;;;;;13.40;10.30;;;;;;;2.74;94.12;97214.54;107640;1267;70243;-70
2022/12/07 08:02:55;;;;;;;12.80;9.60;;;;;;;2.79;93.46;97209.27;107694;1267;69119;-70
2022/12/07 08:05:24;;;;;;;13.90;9.40;;;;;;;2.83;93.10;97212.73;107660;1267;59738;-69
2022/12/07 08:07:53;;;;;;;12.80;10.00;;;;;;;2.86;93.18;97216.06;107600;1269;59768;-69
2022/12/07 08:10:22;;;;;;;12.60;9.90;;;;;;;2.91;93.08;97209.80;107694;1267;72010;-70
2022/12/07 08:15:41;;;;;;;14.50;10.30;;;;;;;3.00;92.13;97214.20;107644;1267;69270;-70
2022/12/07 08:18:10;;;;;;;16.00;10.60;;;;;;;3.07;92.72;97213.20;107636;1267;59700;-69
2022/12/07 08:20:40;;;;;;;11.80;9.10;;;;;;;3.12;91.84;97221.42;107667;1263;59679;-69
2022/12/07 08:23:10;;;;;;;14.20;10.40;;;;;;;3.16;89.97;97227.44;107654;1267;71743;-69
2022/12/07 08:25:39;;;;;;;11.40;8.10;;;;;;;3.20;90.13;97229.17;107697;1267;68056;-68
2022/12/07 08:28:08;;;;;;;12.10;9.00;;;;;;;3.26;90.21;97234.05;107686;1267;69778;-69
2022/12/07 08:30:37;;;;;;;12.10;9.00;;;;;;;3.32;89.77;97233.39;107637;1267;59752;-69
2022/12/07 08:33:06;;;;;;;13.30;8.50;;;;;;;3.36;89.99;97232.00;107729;1267;59701;-69
2022/12/07 08:35:35;;;;;;;12.30;9.80;;;;;;;3.42;89.01;97231.56;107760;1266;70571;-69
2022/12/07 08:38:04;;;;;;;12.60;9.20;;;;;;;3.49;88.83;97230.04;107718;1266;68305;-70
2022/12/07 08:40:35;;;;;;;11.60;8.70;;;;;;;3.57;88.91;97233.95;107621;1267;68388;-70
2022/12/07 08:43:03;;;;;;;10.60;8.80;;;;;;;3.64;88.82;97230.71;107644;1267;59682;-69
2022/12/07 08:45:35;;;;;;;11.80;9.50;;;;;;;3.66;86.79;97224.23;107718;1266;59642;-69
2022/12/07 08:48:10;;;;;;;11.30;8.30;;;;;;;3.69;86.72;97219.06;107707;1267;71458;-70
2022/12/07 08:50:39;;;;;;;11.20;8.80;;;;;;;3.70;86.55;97225.95;107646;1263;68516;-70
2022/12/07 08:53:17;;;;;;;12.80;8.60;;;;;;;3.74;87.08;97227.25;107728;1267;69300;-71
2022/12/07 08:55:47;;;;;;;10.10;7.10;;;;;;;3.74;85.41;97228.15;107669;1266;59768;-70
2022/12/07 08:58:15;;;;;;;11.50;8.60;;;;;;;3.75;85.23;97220.15;107707;1267;59722;-70
2022/12/07 09:00:44;;;;;;;10.10;6.80;;;;;;;3.75;85.86;97218.09;107650;1267;70898;-70
2022/12/07 09:03:13;;;;;;;9.00;6.80;;;;;;;3.79;86.52;97214.29;107678;1267;69844;-70
2022/12/07 09:05:42;;;;;;;8.20;5.50;;;;;;;3.82;84.98;97214.31;107630;1263;69926;-70
2022/12/07 09:08:12;;;;;;;8.60;6.10;;;;;;;3.90;85.01;97216.00;107720;1267;59779;-70
2022/12/07 09:10:41;;;;;;;9.90;6.20;;;;;;;3.98;84.36;97214.02;107668;1266;59736;-70
2022/12/07 09:13:10;;;;;;;8.10;5.90;;;;;;;4.02;84.04;97214.34;107682;1267;69583;-70
2022/12/07 09:15:39;;;;;;;8.40;5.40;;;;;;;4.06;84.25;97218.45;107667;1265;69055;-71
2022/12/07 09:18:08;;;;;;;7.30;5.70;;;;;;;4.07;83.99;97214.62;107778;1267;69893;-71
2022/12/07 09:20:37;;;;;;;7.80;6.10;;;;;;;4.09;83.61;97210.89;107690;1267;59722;-71
2022/12/07 09:23:07;;;;;;;6.50;5.00;;;;;;;4.09;82.59;97208.64;107633;1267;59696;-71
2022/12/07 09:25:36;;;;;;;7.40;5.80;;;;;;;4.16;83.07;97207.14;107629;1263;71196;-70
2022/12/07 09:28:05;;;;;;;7.40;5.40;;;;;;;4.12;81.75;97200.90;107683;1264;68468;-70
2022/12/07 09:30:33;;;;;;;6.40;5.50;;;;;;;4.15;82.12;97198.71;107624;1267;68774;-70
2022/12/07 09:33:22;;;;;;;7.20;5.30;;;;;;;4.20;81.45;97192.95;107661;1267;59758;-70
2022/12/07 09:35:52;;;;;;;7.20;5.40;;;;;;;4.26;82.17;97187.10;107726;1267;59730;-71
2022/12/07 09:38:21;;;;;;;8.30;5.90;;;;;;;4.23;80.92;97185.02;107634;1264;71939;-70
2022/12/07 09:40:50;;;;;;;9.40;7.30;;;;;;;4.32;81.71;97178.52;107791;1267;68157;-70
2022/12/07 09:43:24;;;;;;;8.90;7.20;;;;;;;4.50;82.41;97174.31;107641;1267;69299;-70
2022/12/07 09:45:56;;;;;;;9.10;6.30;;;;;;;4.69;81.48;97168.15;107670;1266;59765;-70
2022/12/07 09:48:32;;;;;;;8.40;6.70;;;;;;;4.91;80.13;97160.70;107708;1267;59707;-71
2022/12/07 09:51:01;;;;;;;11.10;8.00;;;;;;;5.43;79.94;97159.41;107680;1267;70576;-70
2022/12/07 09:53:38;;;;;;;9.20;7.10;;;;;;;6.07;80.17;97161.31;107698;1263;69059;-70
2022/12/07 09:56:06;;;;;;;8.40;7.10;;;;;;;6.65;78.27;97164.96;107655;1260;69903;-71
2022/12/07 09:58:35;;;;;;;8.80;6.60;;;;;;;7.26;72.85;97158.02;107673;1267;59685;-70
2022/12/07 10:01:07;;;;;;;7.80;6.00;;;;;;;8.17;69.03;97163.02;107731;1263;59740;-71
2022/12/07 10:03:38;;;;;;;6.60;5.40;;;;;;;9.34;67.33;97159.30;107670;1263;70609;-71
2022/12/07 10:06:07;;;;;;;6.30;4.90;;;;;;;10.38;65.29;97159.10;107716;1263;69273;-70
2022/12/07 10:08:36;;;;;;;7.10;5.40;;;;;;;11.32;62.48;97160.88;107681;1267;69301;-71
2022/12/07 10:11:10;;;;;;;7.20;6.30;;;;;;;12.15;57.68;97161.31;107639;1263;59775;-71
2022/12/07 10:13:48;;;;;;;6.30;5.20;;;;;;;12.61;51.50;97159.19;107702;1265;59626;-71
2022/12/07 10:16:37;;;;;;;7.30;5.80;;;;;;;13.34;51.76;97154.94;107685;1267;70400;-71
2022/12/07 10:19:26;;;;;;;5.80;4.80;;;;;;;13.92;48.37;97148.77;107637;1267;69452;-71
2022/12/07 10:22:16;;;;;;;4.60;4.00;;;;;;;14.82;49.17;97153.95;107674;1263;69326;-72
2022/12/07 10:24:47;;;;;;;5.70;5.00;;;;;;;15.54;46.09;97151.70;107353;1267;474314;-71
2022/12/07 10:27:22;;;;;;;5.50;4.60;;;;;;;14.25;41.82;97156.08;107728;1267;59723;-72
2022/12/07 10:29:52;;;;;;;6.00;5.40;;;;;;;14.78;41.21;97155.76;107705;1264;72476;-72
2022/12/07 10:32:35;;;;;;;6.50;4.80;;;;;;;14.70;41.31;97155.77;107803;1263;70006;-72
2022/12/07 10:35:25;;;;;;;5.50;4.90;;;;;;;14.75;41.15;97153.08;108038;1264;69570;-70
2022/12/07 10:37:59;;;;;;;5.40;4.60;;;;;;;15.09;40.48;97155.13;107920;1263;59774;-73
2022/12/07 10:40:34;;;;;;;5.60;5.00;;;;;;;15.27;40.99;97150.61;107791;1267;59723;-73
2022/12/07 10:43:05;;;;;;;5.90;5.10;;;;;;;15.47;40.25;97149.38;107748;1267;71969;-72
2022/12/07 10:45:43;;;;;;;5.00;4.50;;;;;;;15.45;40.81;97152.49;107824;1261;69906;-72
2022/12/07 10:48:53;;;;;;;5.00;4.50;;;;;;;15.81;38.80;97147.95;107603;1267;68667;-73
2022/12/07 10:51:57;;;;;;;3.80;2.90;;;;;;;16.25;39.43;97141.15;107631;1267;60071;-72
2022/12/07 10:54:33;;;;;;;3.70;3.10;;;;;;;16.98;39.58;97134.73;107446;1272;59821;-72
2022/12/07 10:57:11;;;;;;;5.10;4.50;;;;;;;17.29;37.20;97127.74;107700;1267;70837;-71
2022/12/07 10:59:49;;;;;;;4.10;3.40;;;;;;;17.23;38.08;97128.56;107711;1267;69232;-71
2022/12/07 11:02:53;;;;;;;5.00;3.90;;;;;;;15.95;36.53;97134.51;107689;1263;69383;-72
2022/12/07 11:05:42;;;;;;;4.90;4.10;;;;;;;16.04;39.49;97136.98;107679;1267;59784;-72
2022/12/07 11:08:36;;;;;;;8.40;6.70;;;;;;;15.04;39.61;97131.02;107677;1263;59713;-72
2022/12/07 11:11:30;;;;;;;6.60;5.30;;;;;;;14.51;41.69;97137.94;107621;1267;72338;-72
2022/12/07 11:14:04;;;;;;;6.60;5.90;;;;;;;14.16;41.42;97127.48;107635;1263;69156;-72
2022/12/07 11:16:48;;;;;;;6.70;5.90;;;;;;;14.79;41.60;97124.48;107652;1267;69991;-72
2022/12/07 11:19:54;;;;;;;6.40;5.70;;;;;;;15.09;40.71;97124.03;107668;1265;59755;-72
2022/12/07 11:22:48;;;;;;;6.10;5.10;;;;;;;15.06;39.53;97117.31;107701;1263;59702;-72
2022/12/07 11:25:20;;;;;;;6.00;4.90;;;;;;;15.57;40.35;97115.90;107633;1263;69541;-72
2022/12/07 11:28:18;;;;;;;6.00;5.10;;;;;;;14.92;39.79;97116.16;107641;1266;68367;-71
2022/12/07 11:30:49;;;;;;;6.90;5.00;;;;;;;14.05;41.25;97116.56;107678;1267;69296;-72
2022/12/07 11:33:40;;;;;;;5.00;4.40;;;;;;;14.27;41.78;97119.13;107769;1263;59754;-72
2022/12/07 11:36:41;;;;;;;6.00;4.00;;;;;;;14.35;41.44;97114.17;107768;1262;59763;-73
2022/12/07 11:39:22;;;;;;;5.00;4.30;;;;;;;14.73;41.67;97118.69;107656;1263;69611;-74
2022/12/07 11:42:15;;;;;;;5.30;4.20;;;;;;;15.10;39.43;97117.98;107629;1267;68384;-73
2022/12/07 11:44:53;;;;;;;5.20;4.40;;;;;;;15.41;38.96;97115.02;107762;1263;68508;-71
2022/12/07 11:47:46;;;;;;;4.90;3.80;;;;;;;15.55;39.20;97115.38;107598;1267;59775;-72
2022/12/07 11:50:24;;;;;;;5.20;4.10;;;;;;;15.45;39.59;97113.21;107621;1267;59694;-71
2022/12/07 11:53:03;;;;;;;4.70;4.10;;;;;;;14.98;39.42;97108.77;107644;1263;71987;-72
2022/12/07 11:55:43;;;;;;;5.20;4.40;;;;;;;13.86;40.75;97102.30;107641;1267;69273;-72
2022/12/07 11:58:49;;;;;;;7.20;5.60;;;;;;;13.02;42.90;97105.42;107630;1265;69098;-73